sensor_id;sensor_type;location;lat;lon;timestamp;pressure;altitude;pressure_sealevel;temperature;humidity
29215;BME280;16252;49.816;7.964;2023-03-20T00:02:21;100143.66;;;11.32;64.11
29215;BME280;16252;49.816;7.964;2023-03-20T00:04:46;100034.59;;;10.65;64.02
29215;BME280;16252;49.816;7.964;2023-03-20T00:07:13;100102.09;;;11.03;64.14
29215;BME280;16252;49.816;7.964;2023-03-20T00:09:39;100212.69;;;11.63;64.13
29215;BME280;16252;49.816;7.964;2023-03-20T00:12:04;100198.78;;;11.58;64.52
29215;BME280;16252;49.816;7.964;2023-03-20T00:14:30;100038.75;;;10.69;64.21
29215;BME280;16252;49.816;7.964;2023-03-20T00:16:56;100162.47;;;11.43;64.25
29215;BME280;16252;49.816;7.964;2023-03-20T00:19:26;100029.22;;;10.65;64.22
29215;BME280;16252;49.816;7.964;2023-03-20T00:21:54;100110.75;;;11.07;64.41
29215;BME280;16252;49.816;7.964;2023-03-20T00:24:19;100092.22;;;10.93;64.48
29215;BME280;16252;49.816;7.964;2023-03-20T00:26:46;100150.84;;;11.20;64.62
29215;BME280;16252;49.816;7.964;2023-03-20T00:31:48;100119.03;;;11.04;64.35
29215;BME280;16252;49.816;7.964;2023-03-20T00:34:15;100190.00;;;11.45;64.79
29215;BME280;16252;49.816;7.964;2023-03-20T00:36:41;100171.94;;;11.36;64.69
29215;BME280;16252;49.816;7.964;2023-03-20T00:39:07;100063.69;;;10.69;64.70
29215;BME280;16252;49.816;7.964;2023-03-20T00:46:52;100050.06;;;10.72;64.89
29215;BME280;16252;49.816;7.964;2023-03-20T00:49:19;100253.50;;;12.13;63.59
29215;BME280;16252;49.816;7.964;2023-03-20T00:51:44;100230.00;;;11.82;64.06
29215;BME280;16252;49.816;7.964;2023-03-20T00:54:16;100043.00;;;10.71;64.40
29215;BME280;16252;49.816;7.964;2023-03-20T00:56:44;100216.13;;;11.77;64.38
29215;BME280;16252;49.816;7.964;2023-03-20T00:59:16;100160.25;;;11.37;64.42
29215;BME280;16252;49.816;7.964;2023-03-20T01:01:43;100252.28;;;11.95;64.39
29215;BME280;16252;49.816;7.964;2023-03-20T01:04:13;100264.44;;;11.99;64.37
29215;BME280;16252;49.816;7.964;2023-03-20T01:06:39;100056.09;;;10.63;64.20
29215;BME280;16252;49.816;7.964;2023-03-20T01:09:05;100269.31;;;11.94;64.29
29215;BME280;16252;49.816;7.964;2023-03-20T01:11:31;100238.03;;;11.70;64.40
29215;BME280;16252;49.816;7.964;2023-03-20T01:13:57;100209.25;;;11.50;64.37
29215;BME280;16252;49.816;7.964;2023-03-20T01:16:24;100245.09;;;11.71;64.70
29215;BME280;16252;49.816;7.964;2023-03-20T01:18:50;100279.44;;;11.90;64.48
29215;BME280;16252;49.816;7.964;2023-03-20T01:21:17;100159.97;;;11.17;64.65
29215;BME280;16252;49.816;7.964;2023-03-20T01:23:43;100173.50;;;11.27;64.61
29215;BME280;16252;49.816;7.964;2023-03-20T01:26:26;100268.72;;;11.90;64.60
29215;BME280;16252;49.816;7.964;2023-03-20T01:28:54;100256.31;;;11.77;64.40
29215;BME280;16252;49.816;7.964;2023-03-20T01:31:19;100135.09;;;11.04;64.41
29215;BME280;16252;49.816;7.964;2023-03-20T01:33:45;100277.78;;;11.77;64.64
29215;BME280;16252;49.816;7.964;2023-03-20T01:36:12;100060.22;;;10.56;64.72
29215;BME280;16252;49.816;7.964;2023-03-20T01:38:39;100246.28;;;11.56;64.70
29215;BME280;16252;49.816;7.964;2023-03-20T01:41:11;100152.25;;;11.01;64.94
29215;BME280;16252;49.816;7.964;2023-03-20T01:43:37;100282.78;;;11.81;64.88
29215;BME280;16252;49.816;7.964;2023-03-20T01:46:25;100287.34;;;11.92;64.63
29215;BME280;16252;49.816;7.964;2023-03-20T01:51:25;100120.81;;;10.92;64.77
29215;BME280;16252;49.816;7.964;2023-03-20T01:53:57;100282.44;;;11.86;64.96
29215;BME280;16252;49.816;7.964;2023-03-20T01:56:23;100185.91;;;11.28;64.61
29215;BME280;16252;49.816;7.964;2023-03-20T01:58:55;100058.00;;;10.50;64.50
29215;BME280;16252;49.816;7.964;2023-03-20T02:01:24;100078.38;;;10.63;64.76
29215;BME280;16252;49.816;7.964;2023-03-20T02:03:52;100183.59;;;11.23;64.73
29215;BME280;16252;49.816;7.964;2023-03-20T02:06:20;100092.47;;;10.66;64.91
29215;BME280;16252;49.816;7.964;2023-03-20T02:08:49;100106.50;;;10.69;64.78
29215;BME280;16252;49.816;7.964;2023-03-20T02:11:20;100074.03;;;10.50;64.70
29215;BME280;16252;49.816;7.964;2023-03-20T02:13:50;100213.69;;;11.27;64.93
29215;BME280;16252;49.816;7.964;2023-03-20T02:16:17;100105.00;;;10.65;65.07
29215;BME280;16252;49.816;7.964;2023-03-20T02:18:45;100195.63;;;11.18;65.08
29215;BME280;16252;49.816;7.964;2023-03-20T02:21:38;100296.09;;;11.83;65.27
29215;BME280;16252;49.816;7.964;2023-03-20T02:27:43;100285.81;;;11.77;64.91
29215;BME280;16252;49.816;7.964;2023-03-20T02:30:40;100297.47;;;11.88;65.20
29215;BME280;16252;49.816;7.964;2023-03-20T02:44:13;100175.41;;;11.14;65.17
29215;BME280;16252;49.816;7.964;2023-03-20T02:47:00;100255.56;;;11.75;65.08
29215;BME280;16252;49.816;7.964;2023-03-20T02:50:02;100298.47;;;11.99;64.85
29215;BME280;16252;49.816;7.964;2023-03-20T02:55:26;100297.22;;;11.91;65.04
29215;BME280;16252;49.816;7.964;2023-03-20T02:58:20;100293.69;;;11.91;65.08
29215;BME280;16252;49.816;7.964;2023-03-20T03:03:19;100283.72;;;11.93;65.34
29215;BME280;16252;49.816;7.964;2023-03-20T03:05:49;100212.16;;;11.47;65.24
29215;BME280;16252;49.816;7.964;2023-03-20T03:08:19;100287.97;;;11.96;65.41
29215;BME280;16252;49.816;7.964;2023-03-20T03:10:56;100251.88;;;11.88;65.31
29215;BME280;16252;49.816;7.964;2023-03-20T03:13:27;100261.41;;;11.92;65.23
29215;BME280;16252;49.816;7.964;2023-03-20T03:15:58;100265.88;;;11.92;65.31
29215;BME280;16252;49.816;7.964;2023-03-20T03:18:28;100242.06;;;11.76;65.44
29215;BME280;16252;49.816;7.964;2023-03-20T03:20:58;100155.22;;;11.21;65.29
29215;BME280;16252;49.816;7.964;2023-03-20T03:23:35;100051.25;;;10.68;65.37
29215;BME280;16252;49.816;7.964;2023-03-20T03:26:05;100288.13;;;12.17;63.81
29215;BME280;16252;49.816;7.964;2023-03-20T03:28:35;100159.97;;;11.28;65.07
29215;BME280;16252;49.816;7.964;2023-03-20T03:31:06;100073.53;;;10.69;65.12
29215;BME280;16252;49.816;7.964;2023-03-20T03:33:34;100084.75;;;10.74;65.13
29215;BME280;16252;49.816;7.964;2023-03-20T03:39:23;100218.75;;;11.54;65.40
29215;BME280;16252;49.816;7.964;2023-03-20T03:41:55;100290.75;;;11.94;65.75
29215;BME280;16252;49.816;7.964;2023-03-20T03:47:08;100209.59;;;11.45;65.46
29215;BME280;16252;49.816;7.964;2023-03-20T03:49:40;100319.81;;;12.11;65.58
29215;BME280;16252;49.816;7.964;2023-03-20T03:52:14;100144.59;;;11.08;65.83
29215;BME280;16252;49.816;7.964;2023-03-20T03:55:01;100326.06;;;12.23;65.64
29215;BME280;16252;49.816;7.964;2023-03-20T03:57:31;100181.91;;;11.34;65.62
29215;BME280;16252;49.816;7.964;2023-03-20T03:59:58;100205.72;;;11.49;65.58
29215;BME280;16252;49.816;7.964;2023-03-20T04:02:26;100184.97;;;11.40;65.60
29215;BME280;16252;49.816;7.964;2023-03-20T04:04:53;100098.53;;;10.92;65.60
29215;BME280;16252;49.816;7.964;2023-03-20T04:07:19;100243.66;;;11.79;65.45
29215;BME280;16252;49.816;7.964;2023-03-20T04:09:45;100312.75;;;12.22;65.54
29215;BME280;16252;49.816;7.964;2023-03-20T04:12:33;100319.72;;;12.35;65.41
29215;BME280;16252;49.816;7.964;2023-03-20T04:14:59;100325.56;;;12.29;65.54
29215;BME280;16252;49.816;7.964;2023-03-20T04:17:25;100263.84;;;11.96;65.66
29215;BME280;16252;49.816;7.964;2023-03-20T04:19:50;100280.06;;;12.05;65.48
29215;BME280;16252;49.816;7.964;2023-03-20T04:22:16;100281.66;;;12.08;65.38
29215;BME280;16252;49.816;7.964;2023-03-20T04:24:41;100133.28;;;11.16;65.31
29215;BME280;16252;49.816;7.964;2023-03-20T04:27:06;100341.41;;;12.32;65.65
29215;BME280;16252;49.816;7.964;2023-03-20T04:29:32;100249.53;;;11.84;65.58
29215;BME280;16252;49.816;7.964;2023-03-20T04:31:57;100248.91;;;11.80;65.41
29215;BME280;16252;49.816;7.964;2023-03-20T04:34:23;100259.78;;;11.90;65.65
29215;BME280;16252;49.816;7.964;2023-03-20T04:36:49;100195.00;;;11.49;65.63
29215;BME280;16252;49.816;7.964;2023-03-20T04:39:14;100252.94;;;11.86;65.62
29215;BME280;16252;49.816;7.964;2023-03-20T04:41:40;100240.47;;;11.74;65.68
29215;BME280;16252;49.816;7.964;2023-03-20T04:44:06;100258.53;;;11.83;65.92
29215;BME280;16252;49.816;7.964;2023-03-20T04:46:31;100238.03;;;11.70;65.67
29215;BME280;16252;49.816;7.964;2023-03-20T04:48:56;100344.34;;;12.29;66.00
29215;BME280;16252;49.816;7.964;2023-03-20T04:51:22;100321.16;;;12.17;65.83
29215;BME280;16252;49.816;7.964;2023-03-20T04:53:47;100339.97;;;12.28;65.95
29215;BME280;16252;49.816;7.964;2023-03-20T04:56:12;100231.69;;;11.60;65.79
29215;BME280;16252;49.816;7.964;2023-03-20T04:58:38;100338.72;;;12.32;65.80
29215;BME280;16252;49.816;7.964;2023-03-20T05:01:03;100333.22;;;12.11;65.83
29215;BME280;16252;49.816;7.964;2023-03-20T05:03:28;100341.91;;;12.26;65.81
29215;BME280;16252;49.816;7.964;2023-03-20T05:05:54;100306.75;;;12.07;66.05
29215;BME280;16252;49.816;7.964;2023-03-20T05:08:19;100182.91;;;11.33;65.82
29215;BME280;16252;49.816;7.964;2023-03-20T05:10:44;100316.63;;;12.06;65.90
29215;BME280;16252;49.816;7.964;2023-03-20T05:13:10;100296.63;;;11.99;66.04
29215;BME280;16252;49.816;7.964;2023-03-20T05:15:35;100291.91;;;12.03;65.93
29215;BME280;16252;49.816;7.964;2023-03-20T05:18:01;100329.59;;;12.24;66.27
29215;BME280;16252;49.816;7.964;2023-03-20T05:20:26;100229.97;;;11.59;66.07
29215;BME280;16252;49.816;7.964;2023-03-20T05:22:51;100139.22;;;11.08;66.02
29215;BME280;16252;49.816;7.964;2023-03-20T05:25:17;100322.63;;;12.21;66.20
29215;BME280;16252;49.816;7.964;2023-03-20T05:27:44;100328.16;;;12.31;66.42
29215;BME280;16252;49.816;7.964;2023-03-20T05:30:10;100245.84;;;11.74;66.47
29215;BME280;16252;49.816;7.964;2023-03-20T05:32:36;100343.59;;;12.27;66.50
29215;BME280;16252;49.816;7.964;2023-03-20T05:35:03;100308.34;;;11.98;66.35
29215;BME280;16252;49.816;7.964;2023-03-20T05:37:28;100222.75;;;11.48;66.34
29215;BME280;16252;49.816;7.964;2023-03-20T05:39:54;100221.91;;;11.48;66.42
29215;BME280;16252;49.816;7.964;2023-03-20T05:42:19;100153.84;;;11.04;66.33
29215;BME280;16252;49.816;7.964;2023-03-20T05:44:45;100324.06;;;12.03;66.63
29215;BME280;16252;49.816;7.964;2023-03-20T05:47:10;100370.34;;;12.29;66.62
29215;BME280;16252;49.816;7.964;2023-03-20T05:49:35;100152.13;;;11.03;66.24
29215;BME280;16252;49.816;7.964;2023-03-20T05:52:01;100264.59;;;11.62;66.49
29215;BME280;16252;49.816;7.964;2023-03-20T05:54:26;100282.03;;;11.68;66.58
29215;BME280;16252;49.816;7.964;2023-03-20T05:56:51;100284.34;;;11.73;66.61
29215;BME280;16252;49.816;7.964;2023-03-20T05:59:19;100235.53;;;11.45;66.60
29215;BME280;16252;49.816;7.964;2023-03-20T06:01:44;100371.66;;;12.23;66.76
29215;BME280;16252;49.816;7.964;2023-03-20T06:04:10;100201.84;;;11.18;66.86
29215;BME280;16252;49.816;7.964;2023-03-20T06:06:36;100364.56;;;12.11;66.71
29215;BME280;16252;49.816;7.964;2023-03-20T06:09:03;100392.75;;;12.28;67.02
29215;BME280;16252;49.816;7.964;2023-03-20T06:11:28;100270.75;;;11.52;66.92
29215;BME280;16252;49.816;7.964;2023-03-20T06:13:54;100276.75;;;11.55;66.92
29215;BME280;16252;49.816;7.964;2023-03-20T06:16:20;100340.63;;;11.97;66.96
29215;BME280;16252;49.816;7.964;2023-03-20T06:18:45;100299.94;;;11.67;66.75
29215;BME280;16252;49.816;7.964;2023-03-20T06:21:10;100294.44;;;11.69;67.01
29215;BME280;16252;49.816;7.964;2023-03-20T06:23:37;100327.16;;;11.85;66.90
29215;BME280;16252;49.816;7.964;2023-03-20T06:26:02;100339.66;;;11.98;67.01
29215;BME280;16252;49.816;7.964;2023-03-20T06:28:28;100345.53;;;12.03;67.07
29215;BME280;16252;49.816;7.964;2023-03-20T06:30:54;100381.31;;;12.26;67.20
29215;BME280;16252;49.816;7.964;2023-03-20T06:33:19;100369.59;;;12.16;67.28
29215;BME280;16252;49.816;7.964;2023-03-20T06:35:45;100244.53;;;11.44;67.14
29215;BME280;16252;49.816;7.964;2023-03-20T06:38:11;100383.00;;;12.27;67.53
29215;BME280;16252;49.816;7.964;2023-03-20T06:40:37;100298.03;;;11.81;67.35
29215;BME280;16252;49.816;7.964;2023-03-20T06:43:02;100374.09;;;12.26;67.36
29215;BME280;16252;49.816;7.964;2023-03-20T06:45:28;100360.69;;;12.26;67.45
29215;BME280;16252;49.816;7.964;2023-03-20T06:47:53;100373.75;;;12.31;67.30
29215;BME280;16252;49.816;7.964;2023-03-20T06:50:18;100362.28;;;12.29;67.31
29215;BME280;16252;49.816;7.964;2023-03-20T06:52:43;100374.25;;;12.36;67.54
29215;BME280;16252;49.816;7.964;2023-03-20T06:55:09;100384.50;;;12.42;67.60
29215;BME280;16252;49.816;7.964;2023-03-20T06:57:34;100337.25;;;12.17;67.55
29215;BME280;16252;49.816;7.964;2023-03-20T06:59:59;100236.53;;;11.55;67.39
29215;BME280;16252;49.816;7.964;2023-03-20T07:02:25;100331.63;;;12.20;67.36
29215;BME280;16252;49.816;7.964;2023-03-20T07:04:50;100340.44;;;12.22;67.25
29215;BME280;16252;49.816;7.964;2023-03-20T07:07:16;100392.94;;;12.49;67.42
29215;BME280;16252;49.816;7.964;2023-03-20T07:09:43;100392.78;;;12.50;67.49
29215;BME280;16252;49.816;7.964;2023-03-20T07:12:11;100223.16;;;11.55;67.51
29215;BME280;16252;49.816;7.964;2023-03-20T07:14:39;100395.25;;;12.53;67.46
29215;BME280;16252;49.816;7.964;2023-03-20T07:17:06;100265.94;;;11.79;67.55
29215;BME280;16252;49.816;7.964;2023-03-20T07:19:33;100356.44;;;12.35;67.54
29215;BME280;16252;49.816;7.964;2023-03-20T07:21:59;100385.97;;;12.57;68.15
29215;BME280;16252;49.816;7.964;2023-03-20T07:24:26;100303.97;;;12.08;68.15
29215;BME280;16252;49.816;7.964;2023-03-20T07:26:52;100351.44;;;12.42;68.46
29215;BME280;16252;49.816;7.964;2023-03-20T07:29:17;100298.84;;;12.17;68.40
29215;BME280;16252;49.816;7.964;2023-03-20T07:31:42;100304.22;;;12.28;68.39
29215;BME280;16252;49.816;7.964;2023-03-20T07:34:08;100391.25;;;12.82;68.19
29215;BME280;16252;49.816;7.964;2023-03-20T07:36:33;100329.38;;;12.49;68.20
29215;BME280;16252;49.816;7.964;2023-03-20T07:38:58;100293.13;;;12.32;68.21
29215;BME280;16252;49.816;7.964;2023-03-20T07:41:24;100405.63;;;13.03;68.08
29215;BME280;16252;49.816;7.964;2023-03-20T07:43:49;100360.50;;;12.74;68.13
29215;BME280;16252;49.816;7.964;2023-03-20T07:46:14;100408.44;;;13.13;68.04
29215;BME280;16252;49.816;7.964;2023-03-20T07:48:40;100413.44;;;13.17;68.07
29215;BME280;16252;49.816;7.964;2023-03-20T07:51:05;100342.19;;;12.79;67.78
29215;BME280;16252;49.816;7.964;2023-03-20T07:53:31;100338.41;;;12.82;67.77
29215;BME280;16252;49.816;7.964;2023-03-20T07:55:56;100333.88;;;12.83;67.47
29215;BME280;16252;49.816;7.964;2023-03-20T07:58:21;100327.50;;;12.84;67.53
29215;BME280;16252;49.816;7.964;2023-03-20T08:00:47;100291.06;;;12.58;67.57
29215;BME280;16252;49.816;7.964;2023-03-20T08:03:12;100339.84;;;12.97;67.76
29215;BME280;16252;49.816;7.964;2023-03-20T08:05:37;100216.19;;;12.22;67.74
29215;BME280;16252;49.816;7.964;2023-03-20T08:08:03;100374.47;;;13.23;67.41
29215;BME280;16252;49.816;7.964;2023-03-20T08:10:28;100386.47;;;13.30;67.59
29215;BME280;16252;49.816;7.964;2023-03-20T08:12:54;100256.19;;;12.58;67.49
29215;BME280;16252;49.816;7.964;2023-03-20T08:15:20;100227.75;;;12.45;67.52
29215;BME280;16252;49.816;7.964;2023-03-20T08:17:46;100413.25;;;13.64;67.45
29215;BME280;16252;49.816;7.964;2023-03-20T08:20:12;100332.59;;;13.20;67.50
29215;BME280;16252;49.816;7.964;2023-03-20T08:22:38;100420.19;;;13.78;67.66
29215;BME280;16252;49.816;7.964;2023-03-20T08:25:04;100427.75;;;13.84;67.76
29215;BME280;16252;49.816;7.964;2023-03-20T08:27:30;100368.66;;;13.61;67.52
29215;BME280;16252;49.816;7.964;2023-03-20T08:29:55;100245.09;;;13.07;67.23
29215;BME280;16252;49.816;7.964;2023-03-20T08:32:21;100421.19;;;14.30;67.58
29215;BME280;16252;49.816;7.964;2023-03-20T08:34:46;100279.75;;;13.53;67.54
29215;BME280;16252;49.816;7.964;2023-03-20T08:37:11;100275.94;;;13.77;66.62
29215;BME280;16252;49.816;7.964;2023-03-20T08:39:40;100439.00;;;14.84;65.96
29215;BME280;16252;49.816;7.964;2023-03-20T08:42:14;100446.41;;;14.92;65.16
29215;BME280;16252;49.816;7.964;2023-03-20T08:44:40;100396.56;;;14.77;64.42
29215;BME280;16252;49.816;7.964;2023-03-20T08:47:05;100371.22;;;14.58;64.52
29215;BME280;16252;49.816;7.964;2023-03-20T08:49:34;100253.25;;;13.91;64.24
29215;BME280;16252;49.816;7.964;2023-03-20T08:51:59;100433.22;;;14.99;63.72
29215;BME280;16252;49.816;7.964;2023-03-20T08:54:25;100346.13;;;14.58;63.86
29215;BME280;16252;49.816;7.964;2023-03-20T08:56:51;100258.34;;;14.15;63.24
29215;BME280;16252;49.816;7.964;2023-03-20T08:59:16;100395.94;;;14.94;63.28
29215;BME280;16252;49.816;7.964;2023-03-20T09:01:41;100296.16;;;14.44;62.86
29215;BME280;16252;49.816;7.964;2023-03-20T09:04:07;100335.53;;;14.66;62.68
29215;BME280;16252;49.816;7.964;2023-03-20T09:06:35;100426.16;;;15.38;62.14
29215;BME280;16252;49.816;7.964;2023-03-20T09:09:01;100254.50;;;14.38;61.91
29215;BME280;16252;49.816;7.964;2023-03-20T09:11:26;100413.94;;;15.44;61.60
29215;BME280;16252;49.816;7.964;2023-03-20T09:13:51;100412.97;;;15.45;61.40
29215;BME280;16252;49.816;7.964;2023-03-20T09:16:17;100313.09;;;14.96;60.97
29215;BME280;16252;49.816;7.964;2023-03-20T09:18:42;100442.59;;;15.75;60.32
29215;BME280;16252;49.816;7.964;2023-03-20T09:21:07;100290.25;;;14.90;60.07
29215;BME280;16252;49.816;7.964;2023-03-20T09:23:33;100249.97;;;14.79;60.27
29215;BME280;16252;49.816;7.964;2023-03-20T09:25:58;100348.38;;;15.43;60.49
29215;BME280;16252;49.816;7.964;2023-03-20T09:28:24;100418.03;;;15.88;60.29
29215;BME280;16252;49.816;7.964;2023-03-20T09:30:54;100407.81;;;16.01;59.57
29215;BME280;16252;49.816;7.964;2023-03-20T09:33:19;100445.72;;;16.29;59.78
29215;BME280;16252;49.816;7.964;2023-03-20T09:35:45;100402.25;;;16.22;59.27
29215;BME280;16252;49.816;7.964;2023-03-20T09:38:10;100424.25;;;16.47;59.05
29215;BME280;16252;49.816;7.964;2023-03-20T09:43:21;100432.44;;;16.84;58.36
29215;BME280;16252;49.816;7.964;2023-03-20T09:46:03;100425.84;;;16.97;58.43
29215;BME280;16252;49.816;7.964;2023-03-20T09:49:01;100431.13;;;17.26;59.33
29215;BME280;16252;49.816;7.964;2023-03-20T09:51:35;100437.16;;;17.47;58.79
29215;BME280;16252;49.816;7.964;2023-03-20T09:54:27;100426.28;;;17.75;58.79
29215;BME280;16252;49.816;7.964;2023-03-20T09:56:57;100433.75;;;18.09;57.66
29215;BME280;16252;49.816;7.964;2023-03-20T09:59:24;100424.41;;;18.47;56.67
29215;BME280;16252;49.816;7.964;2023-03-20T10:01:53;100421.16;;;18.88;56.43
29215;BME280;16252;49.816;7.964;2023-03-20T10:04:19;100401.16;;;19.23;56.65
29215;BME280;16252;49.816;7.964;2023-03-20T10:06:45;100444.97;;;19.95;55.41
29215;BME280;16252;49.816;7.964;2023-03-20T10:09:18;100444.53;;;20.49;55.72
29215;BME280;16252;49.816;7.964;2023-03-20T10:15:02;100435.25;;;21.63;55.26
29215;BME280;16252;49.816;7.964;2023-03-20T10:20:42;100390.44;;;22.72;54.56
29215;BME280;16252;49.816;7.964;2023-03-20T10:23:33;100422.16;;;23.48;55.22
29215;BME280;16252;49.816;7.964;2023-03-20T10:26:11;100379.25;;;23.63;49.73
29215;BME280;16252;49.816;7.964;2023-03-20T10:28:51;100394.50;;;24.15;50.18
29215;BME280;16252;49.816;7.964;2023-03-20T10:31:30;100421.72;;;24.67;49.39
29215;BME280;16252;49.816;7.964;2023-03-20T10:34:14;100411.66;;;25.08;50.98
29215;BME280;16252;49.816;7.964;2023-03-20T10:39:48;100420.78;;;25.64;44.73
29215;BME280;16252;49.816;7.964;2023-03-20T10:42:28;100418.06;;;25.77;45.43
29215;BME280;16252;49.816;7.964;2023-03-20T10:44:58;100404.75;;;25.61;42.79
29215;BME280;16252;49.816;7.964;2023-03-20T10:47:27;100418.97;;;25.36;43.21
29215;BME280;16252;49.816;7.964;2023-03-20T10:49:57;100409.03;;;24.94;41.50
29215;BME280;16252;49.816;7.964;2023-03-20T10:52:28;100412.66;;;24.44;41.89
29215;BME280;16252;49.816;7.964;2023-03-20T10:55:04;100389.22;;;23.86;42.51
29215;BME280;16252;49.816;7.964;2023-03-20T10:57:36;100408.00;;;23.44;41.96
29215;BME280;16252;49.816;7.964;2023-03-20T11:00:05;100399.97;;;22.91;42.12
29215;BME280;16252;49.816;7.964;2023-03-20T11:02:35;100424.19;;;22.86;47.05
29215;BME280;16252;49.816;7.964;2023-03-20T11:05:24;100386.34;;;22.16;44.96
29215;BME280;16252;49.816;7.964;2023-03-20T11:08:10;100416.44;;;21.76;43.65
29215;BME280;16252;49.816;7.964;2023-03-20T11:10:38;100415.63;;;21.28;42.56
29215;BME280;16252;49.816;7.964;2023-03-20T11:13:18;100408.47;;;20.88;43.77
29215;BME280;16252;49.816;7.964;2023-03-20T11:15:47;100401.53;;;20.52;43.10
29215;BME280;16252;49.816;7.964;2023-03-20T11:18:14;100414.63;;;20.32;43.18
29215;BME280;16252;49.816;7.964;2023-03-20T11:23:14;100403.41;;;19.95;43.85
29215;BME280;16252;49.816;7.964;2023-03-20T11:25:55;100404.44;;;19.85;44.72
29215;BME280;16252;49.816;7.964;2023-03-20T11:28:39;100385.56;;;19.67;44.52
29215;BME280;16252;49.816;7.964;2023-03-20T11:31:18;100414.59;;;19.75;45.11
29215;BME280;16252;49.816;7.964;2023-03-20T11:36:29;100409.69;;;19.44;43.28
29215;BME280;16252;49.816;7.964;2023-03-20T11:39:06;100384.53;;;19.18;43.43
29215;BME280;16252;49.816;7.964;2023-03-20T11:41:50;100413.03;;;19.22;43.33
29215;BME280;16252;49.816;7.964;2023-03-20T11:44:21;100409.38;;;19.05;43.52
29215;BME280;16252;49.816;7.964;2023-03-20T11:47:02;100410.25;;;19.05;44.23
29215;BME280;16252;49.816;7.964;2023-03-20T11:49:29;100386.94;;;18.87;43.52
29215;BME280;16252;49.816;7.964;2023-03-20T11:51:59;100396.59;;;18.89;43.35
29215;BME280;16252;49.816;7.964;2023-03-20T11:54:26;100352.00;;;18.57;43.68
29215;BME280;16252;49.816;7.964;2023-03-20T11:56:56;100393.91;;;18.89;43.57
29215;BME280;16252;49.816;7.964;2023-03-20T11:59:25;100355.44;;;18.68;43.72
29215;BME280;16252;49.816;7.964;2023-03-20T12:01:54;100375.19;;;18.78;43.26
29215;BME280;16252;49.816;7.964;2023-03-20T12:04:27;100391.00;;;18.91;44.14
29215;BME280;16252;49.816;7.964;2023-03-20T12:07:05;100370.59;;;18.78;43.23
29215;BME280;16252;49.816;7.964;2023-03-20T12:09:40;100373.88;;;18.82;43.05
29215;BME280;16252;49.816;7.964;2023-03-20T12:15:14;100383.06;;;18.89;44.14
29215;BME280;16252;49.816;7.964;2023-03-20T12:17:59;100382.34;;;18.87;44.99
29215;BME280;16252;49.816;7.964;2023-03-20T12:25:48;100338.81;;;18.62;44.75
29215;BME280;16252;49.816;7.964;2023-03-20T12:28:21;100359.88;;;18.69;42.96
29215;BME280;16252;49.816;7.964;2023-03-20T12:36:32;100327.59;;;18.23;43.35
29215;BME280;16252;49.816;7.964;2023-03-20T12:39:01;100346.69;;;18.22;43.19
29215;BME280;16252;49.816;7.964;2023-03-20T12:41:48;100357.56;;;18.30;43.47
29215;BME280;16252;49.816;7.964;2023-03-20T13:01:56;100327.91;;;17.66;43.72
29215;BME280;16252;49.816;7.964;2023-03-20T13:04:48;100344.09;;;17.76;44.46
29215;BME280;16252;49.816;7.964;2023-03-20T13:07:21;100336.44;;;17.71;43.68
29215;BME280;16252;49.816;7.964;2023-03-20T13:10:02;100326.75;;;17.69;44.08
29215;BME280;16252;49.816;7.964;2023-03-20T13:12:45;100341.06;;;17.79;43.63
29215;BME280;16252;49.816;7.964;2023-03-20T13:15:27;100340.53;;;17.75;43.37
29215;BME280;16252;49.816;7.964;2023-03-20T13:20:40;100335.44;;;17.72;43.69
29215;BME280;16252;49.816;7.964;2023-03-20T13:23:29;100327.59;;;17.69;43.70
29215;BME280;16252;49.816;7.964;2023-03-20T13:26:25;100335.13;;;17.75;44.87
29215;BME280;16252;49.816;7.964;2023-03-20T13:29:05;100303.13;;;17.53;43.82
29215;BME280;16252;49.816;7.964;2023-03-20T13:31:39;100330.25;;;17.61;42.92
29215;BME280;16252;49.816;7.964;2023-03-20T13:34:20;100322.97;;;17.62;43.60
29215;BME280;16252;49.816;7.964;2023-03-20T13:39:37;100297.91;;;17.42;43.10
29215;BME280;16252;49.816;7.964;2023-03-20T13:42:10;100305.66;;;17.37;43.41
29215;BME280;16252;49.816;7.964;2023-03-20T13:44:38;100314.78;;;17.36;43.26
29215;BME280;16252;49.816;7.964;2023-03-20T13:47:25;100322.50;;;17.48;44.07
29215;BME280;16252;49.816;7.964;2023-03-20T13:50:11;100320.13;;;17.45;43.06
29215;BME280;16252;49.816;7.964;2023-03-20T13:52:43;100307.81;;;17.33;42.95
29215;BME280;16252;49.816;7.964;2023-03-20T13:55:25;100331.09;;;17.44;43.56
29215;BME280;16252;49.816;7.964;2023-03-20T13:58:13;100321.72;;;17.38;42.96
29215;BME280;16252;49.816;7.964;2023-03-20T14:00:55;100290.56;;;17.16;43.44
29215;BME280;16252;49.816;7.964;2023-03-20T14:03:31;100318.00;;;17.21;42.05
29215;BME280;16252;49.816;7.964;2023-03-20T14:05:58;100311.41;;;17.06;42.09
29215;BME280;16252;49.816;7.964;2023-03-20T14:11:03;100312.56;;;17.03;42.47
29215;BME280;16252;49.816;7.964;2023-03-20T14:13:31;100296.88;;;16.89;42.18
29215;BME280;16252;49.816;7.964;2023-03-20T14:16:00;100307.06;;;16.95;42.66
29215;BME280;16252;49.816;7.964;2023-03-20T14:18:26;100305.69;;;17.09;44.64
29215;BME280;16252;49.816;7.964;2023-03-20T14:20:59;100300.25;;;16.91;43.07
29215;BME280;16252;49.816;7.964;2023-03-20T14:23:34;100293.06;;;16.82;43.11
29215;BME280;16252;49.816;7.964;2023-03-20T14:26:04;100311.81;;;16.83;42.22
29215;BME280;16252;49.816;7.964;2023-03-20T14:28:43;100292.53;;;16.68;43.36
29215;BME280;16252;49.816;7.964;2023-03-20T14:31:38;100290.41;;;16.62;43.18
29215;BME280;16252;49.816;7.964;2023-03-20T14:36:51;100311.63;;;16.57;43.07
29215;BME280;16252;49.816;7.964;2023-03-20T14:42:03;100298.44;;;16.44;42.86
29215;BME280;16252;49.816;7.964;2023-03-20T14:44:44;100288.25;;;16.38;42.55